createdAt,value
2022-10-03T00:01:25.026Z,74.85
2022-10-03T00:03:54.642Z,75.03
2022-10-03T00:07:02.748Z,74.97
2022-10-03T00:09:47.825Z,75.32
2022-10-03T00:13:00.569Z,74.86
2022-10-03T00:15:35.999Z,74.71
2022-10-03T00:18:14.852Z,75.86
2022-10-03T00:20:53.706Z,75.54
2022-10-03T00:23:29.577Z,76.85
2022-10-03T00:26:35.153Z,77.54
2022-10-03T00:29:25.332Z,78.06
2022-10-03T00:32:10.320Z,78.62
2022-10-03T00:35:01.170Z,78.93
2022-10-03T00:37:36.574Z,79.58
2022-10-03T00:40:27.475Z,80.49
2022-10-03T00:43:13.004Z,81.43
2022-10-03T00:46:00.912Z,82.58
2022-10-03T00:48:30.654Z,83.22
2022-10-03T00:51:20.599Z,83.31
2022-10-03T00:54:15.225Z,83.79
2022-10-03T00:56:51.010Z,83.45
2022-10-03T00:59:32.777Z,83.54
2022-10-03T01:02:29.678Z,83.07
2022-10-03T01:05:03.742Z,82.84
2022-10-03T01:07:48.875Z,83.38
2022-10-03T01:10:41.968Z,83.77
2022-10-03T01:13:45.793Z,83.56
2022-10-03T01:16:38.053Z,83.84
2022-10-03T01:19:40.520Z,84.63
2022-10-03T01:22:29.147Z,84.56
2022-10-03T01:25:33.004Z,85.30
2022-10-03T01:28:24.565Z,85.12
2022-10-03T01:31:04.891Z,85.58
2022-10-03T01:33:37.678Z,86.81
2022-10-03T01:36:13.016Z,87.00
2022-10-03T01:38:53.198Z,86.98
2022-10-03T01:41:35.172Z,86.97
2022-10-03T01:44:14.356Z,86.31
2022-10-03T01:47:17.721Z,85.60
2022-10-03T01:49:56.487Z,85.75
2022-10-03T01:52:26.157Z,85.02
2022-10-03T01:55:14.879Z,84.83
2022-10-03T01:58:09.319Z,84.67
2022-10-03T02:00:47.440Z,84.25
2022-10-03T02:03:36.782Z,83.67
2022-10-03T02:06:27.634Z,82.80
2022-10-03T02:09:07.986Z,82.87
2022-10-03T02:11:42.527Z,82.02
2022-10-03T02:15:00.325Z,81.25
2022-10-03T02:18:05.591Z,81.57
2022-10-03T02:20:45.816Z,80.88
2022-10-03T02:23:31.717Z,80.41
2022-10-03T02:26:10.718Z,80.27
2022-10-03T02:28:45.078Z,80.81
2022-10-03T02:31:24.021Z,81.25
2022-10-03T02:34:23.411Z,81.63
2022-10-03T02:37:15.064Z,81.82
2022-10-03T02:39:41.935Z,82.39
2022-10-03T02:42:14.853Z,83.21
2022-10-03T02:45:08.921Z,83.29
2022-10-03T02:48:30.663Z,82.96
2022-10-03T02:51:04.621Z,83.20
2022-10-03T02:53:34.616Z,83.48
2022-10-03T02:56:04.213Z,83.07
2022-10-03T02:59:08.578Z,82.84
2022-10-03T03:01:54.211Z,82.75
2022-10-03T03:04:23.691Z,82.98
2022-10-03T03:07:08.496Z,83.83
2022-10-03T03:10:12.756Z,83.87
2022-10-03T03:13:22.010Z,83.84
2022-10-03T03:16:23.558Z,84.69
2022-10-03T03:19:31.875Z,84.29
2022-10-03T03:22:04.173Z,83.51
2022-10-03T03:24:49.853Z,82.59
2022-10-03T03:27:25.519Z,81.89
2022-10-03T03:30:10.967Z,81.24
2022-10-03T03:32:47.388Z,81.25
2022-10-03T03:35:23.287Z,81.89
2022-10-03T03:37:55.776Z,82.88
2022-10-03T03:40:38.542Z,84.78
2022-10-03T03:43:34.567Z,86.38
2022-10-03T03:46:26.686Z,87.35
2022-10-03T03:49:35.328Z,88.63
2022-10-03T03:52:32.810Z,88.55
2022-10-03T03:55:36.456Z,88.80
2022-10-03T03:58:34.039Z,88.34
2022-10-03T04:01:28.372Z,88.70
2022-10-03T04:04:08.668Z,87.89
2022-10-03T04:06:51.871Z,87.27
2022-10-03T04:09:36.278Z,87.25
2022-10-03T04:12:33.764Z,87.20
2022-10-03T04:15:09.930Z,86.27
2022-10-03T04:18:05.187Z,85.03
2022-10-03T04:21:01.331Z,84.35
2022-10-03T04:23:51.338Z,84.52
2022-10-03T04:26:59.818Z,86.02
2022-10-03T04:30:06.709Z,87.83
2022-10-03T04:32:57.430Z,88.47
2022-10-03T04:35:42.750Z,89.48
2022-10-03T04:38:21.596Z,89.91
2022-10-03T04:41:09.384Z,90.83
2022-10-03T04:44:02.516Z,90.66
2022-10-03T04:46:39.836Z,90.63
2022-10-03T04:49:42.291Z,90.67
2022-10-03T04:52:28.692Z,89.75
2022-10-03T04:55:06.768Z,89.02
2022-10-03T04:57:36.584Z,88.31
2022-10-03T05:00:24.890Z,87.67
2022-10-03T05:03:04.359Z,87.10
2022-10-03T05:05:34.319Z,86.09
2022-10-03T05:08:31.373Z,86.32
2022-10-03T05:11:06.062Z,84.87
2022-10-03T05:13:39.541Z,84.22
2022-10-03T05:16:22.045Z,83.37
2022-10-03T05:19:33.502Z,82.77
2022-10-03T05:22:28.109Z,81.78
2022-10-03T05:25:10.400Z,81.28
2022-10-03T05:27:53.348Z,79.54
2022-10-03T05:30:35.529Z,77.61
2022-10-03T05:33:14.477Z,77.33
2022-10-03T05:36:08.640Z,77.55
2022-10-03T05:39:20.182Z,77.36
2022-10-03T05:42:23.349Z,75.93
2022-10-03T05:45:12.028Z,76.03
2022-10-03T05:47:49.319Z,76.34
2022-10-03T05:50:44.855Z,75.75
2022-10-03T05:53:51.844Z,74.72
2022-10-03T05:56:27.486Z,74.13
2022-10-03T05:59:13.309Z,74.08
2022-10-03T06:01:49.005Z,72.65
2022-10-03T06:04:26.732Z,72.27
2022-10-03T06:07:12.542Z,71.47
2022-10-03T06:10:25.894Z,71.46
2022-10-03T06:13:04.743Z,71.52
2022-10-03T06:15:54.800Z,69.60
2022-10-03T06:18:43.212Z,68.81
2022-10-03T06:21:28.609Z,67.14
2022-10-03T06:24:25.734Z,65.25
2022-10-03T06:27:13.720Z,64.45
2022-10-03T06:29:56.126Z,63.05
2022-10-03T06:32:35.021Z,62.67
2022-10-03T06:35:25.376Z,61.32
2022-10-03T06:38:37.183Z,61.79
2022-10-03T06:41:53.022Z,64.40
2022-10-03T06:45:03.042Z,64.14
2022-10-03T06:48:05.037Z,65.05
2022-10-03T06:50:50.402Z,65.65
2022-10-03T06:53:35.498Z,65.48
2022-10-03T06:56:20.757Z,64.44
2022-10-03T06:59:17.551Z,65.61
2022-10-03T07:01:59.728Z,65.81
2022-10-03T07:05:00.293Z,65.58
2022-10-03T07:07:36.318Z,66.30
2022-10-03T07:10:15.117Z,66.56
2022-10-03T07:13:12.122Z,65.34
2022-10-03T07:16:05.100Z,66.26
2022-10-03T07:18:49.585Z,66.06
2022-10-03T07:21:38.158Z,66.30
2022-10-03T10:16:48.867Z,100.00
2022-10-03T10:19:24.971Z,100.00
2022-10-03T10:22:13.089Z,100.00
2022-10-03T10:24:49.826Z,100.00
2022-10-03T10:27:35.299Z,100.00
2022-10-03T10:30:04.722Z,100.00
2022-10-03T10:33:01.240Z,100.00
2022-10-03T10:35:39.958Z,100.00
2022-10-03T10:38:28.289Z,100.00
2022-10-03T10:41:30.503Z,100.00
2022-10-03T10:44:18.877Z,100.00
2022-10-03T10:47:11.179Z,100.00
2022-10-03T10:50:08.855Z,100.00
2022-10-03T10:52:41.160Z,100.00
2022-10-03T10:55:10.826Z,99.39
2022-10-03T10:58:10.875Z,98.60
2022-10-03T11:00:59.358Z,96.82
2022-10-03T11:03:53.747Z,97.42
2022-10-03T11:06:52.553Z,97.77
2022-10-03T11:09:28.993Z,98.17
2022-10-03T11:12:28.037Z,100.00
2022-10-03T11:15:22.984Z,100.00
2022-10-03T11:18:24.431Z,100.00
2022-10-03T11:21:24.935Z,100.00
2022-10-03T11:24:10.199Z,100.00
2022-10-03T11:26:54.972Z,100.00
2022-10-03T11:29:43.031Z,100.00
2022-10-03T11:32:39.942Z,100.00
2022-10-03T11:35:43.159Z,100.00
2022-10-03T11:38:20.450Z,99.82
2022-10-03T11:41:18.319Z,99.69
2022-10-03T11:44:07.303Z,99.81
2022-10-03T11:46:46.219Z,99.99
2022-10-03T11:49:24.912Z,99.89
2022-10-03T11:52:13.575Z,99.23
2022-10-03T11:54:44.981Z,98.82
2022-10-03T11:57:26.824Z,97.48
2022-10-03T11:59:53.625Z,96.12
2022-10-03T12:02:42.450Z,96.84
2022-10-03T12:05:29.963Z,95.86
2022-10-03T12:08:15.389Z,95.97
2022-10-03T12:11:07.147Z,95.33
2022-10-03T12:14:10.091Z,94.42
2022-10-03T12:16:47.145Z,94.37
2022-10-03T12:19:38.747Z,91.74
2022-10-03T12:22:38.013Z,90.69
2022-10-03T12:25:19.522Z,90.17
2022-10-03T12:28:12.764Z,88.69
2022-10-03T12:30:58.227Z,89.32
2022-10-03T12:33:47.026Z,89.44
2022-10-03T12:36:31.092Z,89.65
2022-10-03T12:39:05.373Z,89.84
2022-10-03T12:42:07.217Z,91.83
2022-10-03T12:44:44.115Z,93.33
2022-10-03T12:47:53.844Z,94.42
2022-10-03T12:50:16.707Z,94.16
2022-10-03T12:53:02.651Z,94.62
2022-10-03T12:55:33.407Z,94.75
2022-10-03T12:58:37.404Z,94.26
2022-10-03T13:01:17.014Z,95.40
2022-10-03T13:03:48.818Z,93.75
2022-10-03T13:06:30.027Z,94.83
2022-10-03T13:09:27.813Z,93.62
2022-10-03T13:12:27.484Z,94.00
2022-10-03T13:15:22.293Z,92.63
2022-10-03T13:18:02.581Z,90.65
2022-10-03T13:20:34.763Z,89.57
2022-10-03T13:23:10.498Z,89.28
2022-10-03T13:25:54.100Z,88.15
2022-10-03T13:28:31.644Z,87.44
2022-10-03T13:31:25.007Z,87.76
2022-10-03T13:33:56.235Z,87.90
2022-10-03T13:36:39.306Z,88.18
2022-10-03T13:39:21.782Z,86.74
2022-10-03T13:42:31.826Z,85.50
2022-10-03T13:45:05.791Z,86.29
2022-10-03T13:47:44.289Z,85.35
2022-10-03T13:50:24.794Z,86.18
2022-10-03T13:53:28.834Z,85.53
2022-10-03T13:55:59.640Z,85.67
2022-10-03T13:58:44.516Z,87.41
2022-10-03T14:01:50.462Z,87.08
2022-10-03T14:04:26.304Z,87.60
2022-10-03T14:07:11.984Z,86.75
2022-10-03T14:09:54.486Z,87.43
2022-10-03T14:12:43.868Z,87.00
2022-10-03T14:15:22.543Z,87.41
2022-10-03T14:18:15.256Z,86.90
2022-10-03T14:20:53.735Z,87.46
2022-10-03T14:23:42.002Z,87.26
2022-10-03T14:26:11.833Z,87.04
2022-10-03T14:28:48.077Z,85.42
2022-10-03T14:31:36.836Z,85.00
2022-10-03T14:34:11.097Z,83.39
2022-10-03T14:36:52.347Z,82.71
2022-10-03T14:39:38.176Z,80.62
2022-10-03T14:42:42.782Z,80.40
2022-10-03T14:45:15.636Z,80.03
2022-10-03T14:47:47.807Z,80.62
2022-10-03T14:50:18.764Z,80.39
2022-10-03T14:53:02.721Z,80.04
2022-10-03T14:55:39.945Z,79.77
2022-10-03T14:58:18.215Z,79.83
2022-10-03T15:00:55.497Z,79.87
2022-10-03T15:03:33.570Z,79.58
2022-10-03T15:06:19.410Z,80.01
2022-10-03T15:08:54.654Z,80.55
2022-10-03T15:11:29.380Z,81.19
2022-10-03T15:14:06.562Z,81.28
2022-10-03T15:16:39.033Z,81.16
2022-10-03T15:19:29.129Z,81.21
2022-10-03T15:22:14.391Z,81.30
2022-10-03T15:24:42.168Z,81.12
2022-10-03T15:27:20.238Z,80.15
2022-10-03T15:29:55.157Z,80.20
2022-10-03T15:32:34.037Z,80.30
2022-10-03T15:35:02.439Z,80.52
2022-10-03T15:37:35.507Z,80.77
2022-10-03T15:40:12.597Z,80.37
2022-10-03T15:42:49.610Z,80.49
2022-10-03T15:45:29.050Z,81.13
2022-10-03T15:48:00.937Z,81.56
2022-10-03T15:50:35.497Z,82.09
2022-10-03T15:53:34.984Z,82.20
2022-10-03T15:56:19.148Z,82.84
2022-10-03T15:58:56.331Z,82.37
2022-10-03T16:01:27.360Z,83.20
2022-10-03T16:04:02.006Z,82.69
2022-10-03T16:06:50.041Z,82.80
2022-10-03T16:09:23.702Z,82.95
2022-10-03T16:12:12.246Z,82.80
2022-10-03T16:14:48.278Z,83.08
2022-10-03T16:17:39.447Z,83.38
2022-10-03T16:20:31.030Z,83.81
2022-10-03T16:23:00.043Z,84.86
2022-10-03T16:25:40.166Z,86.08
2022-10-03T16:28:12.657Z,89.68
2022-10-03T16:30:46.381Z,93.71
2022-10-03T16:33:20.267Z,97.08
2022-10-03T16:35:58.525Z,100.00
2022-10-03T16:38:30.087Z,100.00
2022-10-03T16:41:03.283Z,100.00
2022-10-03T16:43:34.821Z,100.00
2022-10-03T16:46:24.393Z,100.00
2022-10-03T16:49:14.707Z,100.00
2022-10-03T16:51:46.161Z,100.00
2022-10-03T16:54:21.357Z,100.00
2022-10-03T16:56:55.804Z,100.00
2022-10-03T16:59:24.099Z,100.00
2022-10-03T17:01:56.514Z,100.00
2022-10-03T17:04:31.684Z,100.00
2022-10-03T17:07:16.634Z,100.00
2022-10-03T17:09:47.015Z,100.00
2022-10-03T17:12:28.593Z,100.00
2022-10-03T17:14:58.148Z,100.00
2022-10-03T17:17:48.916Z,100.00
2022-10-03T17:20:22.098Z,100.00
2022-10-03T17:23:03.753Z,100.00
2022-10-03T17:25:38.054Z,100.00
2022-10-03T17:28:11.574Z,100.00
2022-10-03T17:30:52.444Z,100.00
2022-10-03T17:33:22.489Z,100.00
2022-10-03T17:36:26.903Z,100.00
2022-10-03T17:39:05.139Z,100.00
2022-10-03T17:42:01.250Z,100.00
2022-10-03T17:45:06.901Z,100.00
2022-10-03T17:47:53.098Z,100.00
2022-10-03T17:50:30.547Z,100.00
2022-10-03T17:53:00.300Z,100.00
2022-10-03T17:55:33.361Z,100.00
2022-10-03T17:58:05.141Z,100.00
2022-10-03T18:00:47.106Z,100.00
2022-10-03T18:03:29.603Z,100.00
2022-10-03T18:06:21.507Z,100.00
2022-10-03T18:08:51.846Z,100.00
2022-10-03T18:11:23.969Z,100.00
2022-10-03T18:14:10.517Z,100.00
2022-10-03T18:16:44.256Z,100.00
2022-10-03T18:19:22.822Z,100.00
2022-10-03T18:22:11.245Z,100.00
2022-10-03T18:24:55.768Z,100.00
2022-10-03T18:27:34.946Z,100.00
2022-10-03T18:30:13.613Z,100.00
2022-10-03T18:32:42.776Z,100.00
2022-10-03T18:35:16.287Z,100.00
2022-10-03T18:37:43.215Z,100.00
2022-10-03T18:40:24.112Z,100.00
2022-10-03T18:42:52.068Z,100.00
2022-10-03T18:45:29.871Z,100.00
2022-10-03T18:48:04.935Z,100.00
2022-10-03T18:50:50.811Z,100.00
2022-10-03T18:53:35.526Z,100.00
2022-10-03T18:56:10.192Z,100.00
2022-10-03T18:58:43.954Z,100.00
2022-10-03T19:01:17.825Z,100.00
2022-10-03T19:03:54.553Z,100.00
2022-10-03T19:06:27.362Z,100.00
2022-10-03T19:08:58.744Z,100.00
2022-10-03T19:11:34.503Z,100.00
2022-10-03T19:14:07.527Z,100.00
2022-10-03T19:16:41.046Z,100.00
2022-10-03T19:19:20.966Z,100.00
2022-10-03T19:21:49.072Z,100.00
2022-10-03T19:24:30.727Z,100.00
2022-10-03T19:27:19.053Z,100.00
2022-10-03T19:29:50.558Z,100.00
2022-10-03T19:32:43.925Z,100.00
2022-10-03T19:35:15.778Z,100.00
2022-10-03T19:37:51.970Z,100.00
2022-10-03T19:40:47.793Z,100.00
2022-10-03T19:43:31.558Z,100.00
2022-10-03T19:46:24.308Z,100.00
2022-10-03T19:49:18.839Z,100.00
2022-10-03T19:51:46.239Z,100.00
2022-10-03T19:54:27.775Z,100.00
2022-10-03T19:56:55.311Z,100.00
2022-10-03T19:59:37.502Z,100.00
2022-10-03T20:02:07.079Z,100.00
2022-10-03T20:04:36.964Z,100.00
2022-10-03T20:07:15.003Z,100.00
2022-10-03T20:09:56.124Z,99.43
2022-10-03T20:12:29.177Z,99.60
2022-10-03T20:15:13.691Z,99.65
2022-10-03T20:17:41.328Z,100.00
2022-10-03T20:20:16.367Z,100.00
2022-10-03T20:22:43.432Z,99.98
2022-10-03T20:25:30.557Z,99.59
2022-10-03T20:28:03.562Z,99.76
2022-10-03T20:30:51.443Z,99.19
2022-10-03T20:33:37.413Z,98.98
2022-10-03T20:36:10.426Z,100.00
2022-10-03T20:39:02.487Z,100.00
2022-10-03T20:41:32.358Z,100.00
2022-10-03T20:44:11.065Z,100.00
2022-10-03T20:47:06.744Z,100.00
2022-10-03T20:49:37.531Z,100.00
2022-10-03T20:52:07.979Z,100.00
2022-10-03T20:54:48.582Z,100.00
2022-10-03T20:57:20.654Z,100.00
2022-10-03T21:00:00.005Z,100.00
2022-10-03T21:02:46.065Z,100.00
2022-10-03T21:05:43.907Z,100.00
2022-10-03T21:08:13.184Z,100.00
2022-10-03T21:10:47.515Z,100.00
2022-10-03T21:13:22.670Z,100.00
2022-10-03T21:15:53.642Z,100.00
2022-10-03T21:18:27.225Z,100.00
2022-10-03T21:21:12.699Z,100.00
2022-10-03T21:24:09.055Z,100.00
2022-10-03T21:26:45.200Z,100.00
2022-10-03T21:29:26.820Z,100.00
2022-10-03T21:32:08.856Z,100.00
2022-10-03T21:35:04.686Z,100.00
2022-10-03T21:37:51.796Z,100.00
2022-10-03T21:40:39.499Z,100.00
2022-10-03T21:43:43.520Z,100.00
2022-10-03T21:46:19.221Z,100.00
2022-10-03T21:49:15.149Z,100.00
2022-10-03T21:52:02.231Z,100.00
2022-10-03T21:54:47.942Z,100.00
2022-10-03T21:57:46.295Z,100.00
2022-10-03T22:00:18.027Z,100.00
2022-10-03T22:03:16.988Z,100.00
2022-10-03T22:06:08.284Z,100.00
2022-10-03T22:08:43.291Z,100.00
2022-10-03T22:11:22.149Z,100.00
2022-10-03T22:14:26.101Z,100.00
2022-10-03T22:17:15.890Z,100.00
2022-10-03T22:19:52.811Z,100.00
2022-10-03T22:22:43.825Z,100.00
2022-10-03T22:25:44.423Z,100.00
2022-10-03T22:28:43.913Z,100.00
2022-10-03T22:31:35.917Z,100.00
2022-10-03T22:34:51.526Z,100.00
2022-10-03T22:37:19.484Z,100.00
2022-10-03T22:39:48.541Z,100.00
2022-10-03T22:42:16.686Z,100.00
2022-10-03T22:44:47.985Z,100.00
2022-10-03T22:47:29.811Z,100.00
2022-10-03T22:50:03.149Z,100.00
2022-10-03T22:52:37.801Z,100.00
2022-10-03T22:55:08.600Z,100.00
2022-10-03T22:57:36.600Z,100.00
2022-10-03T23:00:16.726Z,100.00
2022-10-03T23:02:49.981Z,100.00
2022-10-03T23:05:55.565Z,100.00
2022-10-03T23:08:40.442Z,100.00
2022-10-03T23:11:25.231Z,100.00
2022-10-03T23:13:52.914Z,100.00
2022-10-03T23:16:38.149Z,100.00
2022-10-03T23:19:30.419Z,100.00
2022-10-03T23:21:59.612Z,100.00
2022-10-03T23:24:35.177Z,100.00
2022-10-03T23:27:22.422Z,100.00
2022-10-03T23:30:09.159Z,100.00
2022-10-03T23:32:47.924Z,100.00
2022-10-03T23:35:16.489Z,100.00
2022-10-03T23:37:46.137Z,100.00
2022-10-03T23:40:25.222Z,100.00
2022-10-03T23:43:18.754Z,100.00
2022-10-03T23:45:46.858Z,100.00
2022-10-03T23:48:17.864Z,100.00
2022-10-03T23:50:50.052Z,100.00
2022-10-03T23:53:38.976Z,100.00
2022-10-03T23:56:24.125Z,100.00
2022-10-03T23:59:13.961Z,100.00
